Time;durP1;ratioP1;P1;durP2;ratioP2;P2;SDS_P1;SDS_P2;PMS_P1;PMS_P2;Temp;Humidity;BMP_temperature;BMP_pressure;BME280_temperature;BME280_humidity;BME280_pressure;Samples;Min_cycle;Max_cycle;Signal;HPM_P1;HPM_P2
2021/06/05 00:02:24;;;;;;;8.50;2.42;;;22.20;47.40;;;;;;5059155;28;20107;-78
2021/06/05 00:04:57;;;;;;;5.10;2.00;;;22.30;47.20;;;;;;5076912;28;20452;-77
2021/06/05 00:07:25;;;;;;;6.80;1.80;;;22.30;46.90;;;;;;5057313;28;20033;-76
2021/06/05 00:09:52;;;;;;;6.53;2.40;;;22.30;46.90;;;;;;5057226;28;20033;-78
2021/06/05 00:12:23;;;;;;;13.07;1.85;;;22.00;47.30;;;;;;5039456;28;20039;-77
2021/06/05 00:14:51;;;;;;;13.32;2.47;;;21.80;47.40;;;;;;5039501;28;20032;-77
2021/06/05 00:17:17;;;;;;;10.13;2.00;;;21.70;47.80;;;;;;5057985;28;20029;-77
2021/06/05 00:19:44;;;;;;;5.43;2.13;;;21.60;48.30;;;;;;5076993;28;20025;-77
2021/06/05 00:22:11;;;;;;;10.95;2.35;;;21.70;48.00;;;;;;5077041;28;20026;-77
2021/06/05 00:24:39;;;;;;;7.50;2.33;;;21.70;48.10;;;;;;5076835;28;20383;-76
2021/06/05 00:27:06;;;;;;;13.90;2.35;;;21.60;48.30;;;;;;5059193;28;20035;-77
2021/06/05 00:29:32;;;;;;;13.20;2.22;;;21.60;48.20;;;;;;5059149;28;20020;-77
2021/06/05 00:31:59;;;;;;;15.88;2.78;;;21.60;48.30;;;;;;5076804;28;20021;-78
2021/06/05 00:34:26;;;;;;;8.52;2.20;;;21.60;48.20;;;;;;5076795;28;20050;-76
2021/06/05 00:36:52;;;;;;;7.85;2.00;;;21.50;48.40;;;;;;5058663;28;20077;-78
2021/06/05 00:39:19;;;;;;;15.18;2.72;;;21.60;48.40;;;;;;5076058;28;20067;-76
2021/06/05 00:41:45;;;;;;;7.80;3.10;;;21.50;48.40;;;;;;5076439;28;20028;-77
2021/06/05 00:44:13;;;;;;;7.72;2.40;;;21.40;48.50;;;;;;5076576;28;20036;-77
2021/06/05 00:46:40;;;;;;;12.95;2.85;;;21.50;48.20;;;;;;5073965;28;20115;-77
2021/06/05 00:49:09;;;;;;;9.10;1.77;;;21.40;48.50;;;;;;5038915;28;20114;-77
2021/06/05 00:51:42;;;;;;;9.55;2.30;;;21.30;48.50;;;;;;5056882;28;20168;-77
2021/06/05 00:54:11;;;;;;;10.52;3.20;;;21.30;48.60;;;;;;5069255;28;20356;-77
2021/06/05 00:56:38;;;;;;;10.07;3.25;;;21.40;48.60;;;;;;5039470;28;20082;-76
2021/06/05 00:59:05;;;;;;;10.82;1.85;;;21.40;48.20;;;;;;5060436;28;20553;-77
2021/06/05 01:01:32;;;;;;;5.25;2.13;;;21.30;48.40;;;;;;5067661;28;20025;-76
2021/06/05 01:03:59;;;;;;;5.88;2.50;;;21.20;48.60;;;;;;5048896;28;20035;-77
2021/06/05 01:06:51;;;;;;;13.13;2.42;;;21.00;49.00;;;;;;5056823;28;20053;-77
2021/06/05 01:09:24;;;;;;;24.80;2.42;;;20.80;49.90;;;;;;5050572;28;20464;-77
2021/06/05 01:12:02;;;;;;;12.20;2.90;;;20.80;49.40;;;;;;5055794;28;20032;-77
2021/06/05 01:14:40;;;;;;;4.75;2.38;;;20.70;49.50;;;;;;5057589;28;20348;-77
2021/06/05 01:17:27;;;;;;;10.98;4.07;;;20.60;49.70;;;;;;5075886;28;20024;-77
2021/06/05 01:20:00;;;;;;;10.05;3.20;;;20.50;49.80;;;;;;5075924;28;20107;-77
2021/06/05 01:22:26;;;;;;;9.77;2.08;;;20.30;50.20;;;;;;5076044;28;20472;-77
2021/06/05 01:25:20;;;;;;;14.02;2.72;;;20.30;50.40;;;;;;5075705;28;20028;-77
2021/06/05 01:27:55;;;;;;;10.23;2.67;;;20.20;50.60;;;;;;5075754;28;20040;-78
2021/06/05 01:30:34;;;;;;;5.50;1.75;;;20.20;50.70;;;;;;5075725;28;20013;-77
2021/06/05 01:33:01;;;;;;;5.32;1.85;;;20.20;50.40;;;;;;5075603;28;20027;-77
2021/06/05 01:35:30;;;;;;;11.90;2.90;;;20.10;50.50;;;;;;5075684;28;20025;-77
2021/06/05 01:37:57;;;;;;;12.07;2.85;;;20.10;50.70;;;;;;5075361;28;20020;-77
2021/06/05 01:40:27;;;;;;;11.80;2.55;;;20.00;50.80;;;;;;5075443;28;20372;-77
2021/06/05 01:42:56;;;;;;;10.50;2.92;;;20.00;50.70;;;;;;5075310;28;20033;-76
2021/06/05 01:45:27;;;;;;;9.18;2.20;;;19.90;51.10;;;;;;5073387;28;20027;-77
2021/06/05 01:47:55;;;;;;;12.75;1.98;;;19.80;51.00;;;;;;5073161;28;20040;-77
2021/06/05 01:50:26;;;;;;;14.93;2.45;;;19.70;51.60;;;;;;5072950;28;20074;-78
2021/06/05 01:52:56;;;;;;;8.90;2.55;;;19.60;52.10;;;;;;5075147;28;20020;-77
2021/06/05 01:55:32;;;;;;;11.73;2.80;;;19.20;51.70;;;;;;5074977;28;20086;-77
2021/06/05 01:58:01;;;;;;;9.90;2.05;;;19.20;51.90;;;;;;5075089;28;20031;-78
2021/06/05 02:00:36;;;;;;;24.27;4.10;;;19.20;52.60;;;;;;5074884;28;20032;-77
2021/06/05 02:03:04;;;;;;;6.85;2.40;;;19.10;52.60;;;;;;5075015;28;20020;-76
2021/06/05 02:05:32;;;;;;;15.48;3.83;;;18.90;52.90;;;;;;5057179;28;20029;-77
2021/06/05 02:07:59;;;;;;;7.93;2.45;;;18.80;53.50;;;;;;5074680;28;20016;-77
2021/06/05 02:10:32;;;;;;;9.98;4.18;;;18.70;53.80;;;;;;5074795;28;20021;-76
2021/06/05 02:12:58;;;;;;;12.90;2.25;;;18.60;54.30;;;;;;5070616;28;20177;-76
2021/06/05 02:15:24;;;;;;;22.70;5.13;;;18.50;54.50;;;;;;5074558;28;20096;-76
2021/06/05 02:17:52;;;;;;;9.85;2.42;;;18.30;54.70;;;;;;5044489;28;20032;-75
2021/06/05 02:20:43;;;;;;;7.05;2.63;;;18.20;55.20;;;;;;5069173;28;20036;-76
2021/06/05 02:23:17;;;;;;;13.75;3.80;;;18.10;55.40;;;;;;5046705;28;20024;-76
2021/06/05 02:25:44;;;;;;;20.05;2.33;;;18.00;55.90;;;;;;5070190;28;20056;-75
2021/06/05 02:28:13;;;;;;;8.82;3.25;;;17.90;56.10;;;;;;5054469;28;20036;-76
2021/06/05 02:30:39;;;;;;;11.40;3.63;;;17.70;56.30;;;;;;5036940;28;20376;-76
2021/06/05 02:33:06;;;;;;;12.00;2.28;;;17.90;56.40;;;;;;5054474;28;20028;-75
2021/06/05 02:35:38;;;;;;;17.02;3.78;;;17.80;56.30;;;;;;5054335;28;20021;-76
2021/06/05 02:38:05;;;;;;;11.05;3.20;;;17.70;57.00;;;;;;5054505;28;20027;-76
2021/06/05 02:40:35;;;;;;;11.30;2.88;;;17.50;56.80;;;;;;5054551;28;20090;-76
2021/06/05 02:43:05;;;;;;;22.13;5.38;;;17.50;57.20;;;;;;5036769;28;20029;-76
2021/06/05 02:45:48;;;;;;;20.27;3.22;;;17.40;57.40;;;;;;5054092;28;20471;-75
2021/06/05 02:48:14;;;;;;;12.38;2.50;;;17.30;57.20;;;;;;5069668;28;20028;-76
2021/06/05 02:50:48;;;;;;;16.77;4.47;;;17.30;58.10;;;;;;5074584;28;20104;-75
2021/06/05 02:53:16;;;;;;;8.75;3.33;;;17.20;58.50;;;;;;5056852;28;20025;-77
2021/06/05 02:55:43;;;;;;;9.98;2.47;;;17.10;58.20;;;;;;5074319;28;20035;-77
2021/06/05 02:58:13;;;;;;;11.73;4.97;;;17.10;58.40;;;;;;5074454;28;20364;-77
2021/06/05 03:00:45;;;;;;;12.95;3.97;;;17.10;58.40;;;;;;5056592;28;20056;-76
2021/06/05 03:03:15;;;;;;;12.05;3.78;;;16.90;58.50;;;;;;5074462;28;20335;-76
2021/06/05 03:05:43;;;;;;;8.10;3.25;;;17.00;58.60;;;;;;5074306;28;20177;-76
2021/06/05 03:08:24;;;;;;;12.43;3.42;;;17.00;58.80;;;;;;5073800;28;20108;-76
2021/06/05 03:10:51;;;;;;;12.00;2.60;;;17.00;58.30;;;;;;5056392;28;20109;-77
2021/06/05 03:13:19;;;;;;;24.00;5.22;;;16.90;59.10;;;;;;5073215;28;20021;-77
2021/06/05 03:15:46;;;;;;;14.20;2.85;;;16.70;59.10;;;;;;5073740;28;20023;-76
2021/06/05 03:18:14;;;;;;;7.95;3.17;;;16.80;59.30;;;;;;5072153;28;20037;-76
2021/06/05 03:20:45;;;;;;;21.63;5.72;;;16.90;59.30;;;;;;5073815;28;20036;-76
2021/06/05 03:23:14;;;;;;;19.08;4.78;;;16.80;59.00;;;;;;5073989;28;20024;-76
2021/06/05 03:25:40;;;;;;;10.25;3.25;;;16.70;59.20;;;;;;5073786;28;20107;-77
2021/06/05 03:28:08;;;;;;;8.48;2.33;;;16.60;58.90;;;;;;5074100;28;20025;-76
2021/06/05 03:30:35;;;;;;;10.23;2.20;;;16.50;59.40;;;;;;5074782;28;20352;-76
2021/06/05 03:33:02;;;;;;;14.00;3.63;;;16.50;59.30;;;;;;5074154;28;20025;-76
2021/06/05 03:35:29;;;;;;;10.50;2.28;;;16.50;59.80;;;;;;5058193;28;20369;-76
2021/06/05 03:37:55;;;;;;;10.57;3.40;;;16.50;59.90;;;;;;5077896;28;20028;-76
2021/06/05 03:40:25;;;;;;;20.95;2.83;;;16.50;58.90;;;;;;5078265;28;20038;-76
2021/06/05 03:42:52;;;;;;;12.55;3.28;;;16.70;59.90;;;;;;5077961;28;20515;-76
2021/06/05 03:45:19;;;;;;;15.27;3.30;;;16.70;59.70;;;;;;5059886;28;20033;-76
2021/06/05 03:47:46;;;;;;;9.07;3.05;;;16.40;59.90;;;;;;5059903;28;20039;-77
2021/06/05 03:50:18;;;;;;;11.90;3.40;;;16.40;59.90;;;;;;5057961;28;20460;-77
2021/06/05 03:52:45;;;;;;;7.03;2.20;;;16.40;60.40;;;;;;5076496;28;20040;-78
2021/06/05 03:55:14;;;;;;;15.82;4.43;;;16.30;60.00;;;;;;5077317;28;20021;-78
2021/06/05 03:57:40;;;;;;;18.75;5.03;;;16.30;60.40;;;;;;5077409;28;20082;-77
2021/06/05 04:00:10;;;;;;;11.18;2.30;;;16.40;60.70;;;;;;5077305;28;20021;-77
2021/06/05 04:02:37;;;;;;;10.57;3.58;;;16.40;60.30;;;;;;5054313;28;20029;-76
2021/06/05 04:05:04;;;;;;;17.33;3.50;;;16.30;60.50;;;;;;5066592;28;20480;-76
2021/06/05 04:07:30;;;;;;;10.90;2.67;;;16.30;60.60;;;;;;5077022;28;20025;-76
2021/06/05 04:09:57;;;;;;;21.02;3.53;;;16.40;60.50;;;;;;5077046;28;20035;-76
2021/06/05 04:12:23;;;;;;;13.60;2.97;;;16.40;60.60;;;;;;5059465;28;20416;-76
2021/06/05 04:14:49;;;;;;;15.27;3.63;;;16.40;60.80;;;;;;5059204;28;20020;-76
2021/06/05 04:17:16;;;;;;;27.50;4.57;;;16.20;60.50;;;;;;5076106;28;20468;-76
2021/06/05 04:19:42;;;;;;;13.52;2.67;;;16.10;60.30;;;;;;5061960;28;20074;-76
2021/06/05 04:22:11;;;;;;;14.98;2.72;;;16.10;60.50;;;;;;5076678;28;20047;-76
2021/06/05 04:24:38;;;;;;;10.68;3.35;;;16.20;61.00;;;;;;5075753;28;20024;-76
2021/06/05 04:27:06;;;;;;;13.43;2.72;;;16.20;60.80;;;;;;5059022;28;20039;-76
2021/06/05 04:29:33;;;;;;;8.00;2.92;;;16.30;60.90;;;;;;5076858;28;20100;-76
2021/06/05 04:32:00;;;;;;;10.02;2.45;;;16.20;60.80;;;;;;5076713;28;20056;-76
2021/06/05 04:34:26;;;;;;;17.85;4.65;;;16.20;60.90;;;;;;5059134;28;20029;-76
2021/06/05 04:36:53;;;;;;;11.75;2.97;;;16.30;60.50;;;;;;5076556;28;20487;-76
2021/06/05 04:39:21;;;;;;;14.10;4.35;;;16.10;61.30;;;;;;5064870;28;20032;-76
2021/06/05 04:41:47;;;;;;;13.95;3.47;;;16.10;60.90;;;;;;5060966;28;20024;-75
2021/06/05 04:44:14;;;;;;;9.25;3.80;;;16.10;60.80;;;;;;5056904;28;20029;-76
2021/06/05 04:46:41;;;;;;;8.85;2.75;;;16.00;60.60;;;;;;5055379;28;20108;-76
2021/06/05 04:49:08;;;;;;;13.32;3.28;;;16.10;60.90;;;;;;5062229;28;20025;-76
2021/06/05 04:51:36;;;;;;;14.80;5.35;;;16.20;60.90;;;;;;5054228;28;20029;-76
2021/06/05 04:54:03;;;;;;;15.07;3.25;;;16.20;60.70;;;;;;5076425;28;20104;-77
2021/06/05 04:56:40;;;;;;;17.15;5.78;;;16.20;60.50;;;;;;5058781;28;20055;-76
2021/06/05 04:59:08;;;;;;;14.73;3.58;;;16.20;60.70;;;;;;5058570;28;20059;-76
2021/06/05 05:01:34;;;;;;;7.75;3.63;;;16.00;60.50;;;;;;5076234;28;20024;-76
2021/06/05 05:04:02;;;;;;;4.35;2.30;;;16.00;61.20;;;;;;5076228;28;20510;-76
2021/06/05 05:06:29;;;;;;;20.73;3.15;;;16.00;61.20;;;;;;5075952;28;20028;-77
2021/06/05 05:08:55;;;;;;;6.93;2.58;;;16.00;60.90;;;;;;5042236;28;20380;-76
2021/06/05 05:11:22;;;;;;;18.08;2.35;;;16.00;61.00;;;;;;5056159;28;20035;-76
2021/06/05 05:13:49;;;;;;;7.43;2.83;;;16.20;61.00;;;;;;5056007;28;20031;-76
2021/06/05 05:16:16;;;;;;;9.23;3.38;;;16.20;61.50;;;;;;5062102;28;20017;-76
2021/06/05 05:18:46;;;;;;;10.93;2.55;;;16.30;61.10;;;;;;5075939;28;20111;-76
2021/06/05 05:21:14;;;;;;;13.98;5.68;;;16.20;61.40;;;;;;5058135;28;20345;-76
2021/06/05 05:23:41;;;;;;;4.50;2.30;;;16.10;61.50;;;;;;5058144;28;20085;-76
2021/06/05 05:26:09;;;;;;;14.48;2.60;;;16.10;61.30;;;;;;5058350;28;20082;-76
2021/06/05 05:28:37;;;;;;;12.75;3.38;;;16.10;61.40;;;;;;5075582;28;20032;-77
2021/06/05 05:31:07;;;;;;;17.55;4.00;;;16.30;62.10;;;;;;5075724;28;20348;-76
2021/06/05 05:33:38;;;;;;;14.88;4.07;;;16.20;61.30;;;;;;5075746;28;20016;-77
2021/06/05 05:36:08;;;;;;;10.95;4.50;;;16.10;61.40;;;;;;5075952;28;20398;-77
2021/06/05 05:38:37;;;;;;;12.88;3.63;;;16.00;61.40;;;;;;5075406;28;20020;-77
2021/06/05 05:41:05;;;;;;;9.43;2.80;;;16.00;61.30;;;;;;5075486;28;20754;-76
2021/06/05 05:43:31;;;;;;;15.80;4.00;;;15.80;61.80;;;;;;5057794;28;20039;-76
2021/06/05 05:45:58;;;;;;;14.88;3.90;;;15.90;61.40;;;;;;5075360;28;20475;-77
2021/06/05 05:48:27;;;;;;;11.02;3.08;;;15.90;61.60;;;;;;5074958;28;20029;-77
2021/06/05 05:50:54;;;;;;;18.23;3.63;;;16.00;61.70;;;;;;5075405;28;20029;-77
2021/06/05 05:53:20;;;;;;;7.40;2.38;;;15.90;61.30;;;;;;5075493;28;20325;-77
2021/06/05 05:55:47;;;;;;;15.45;5.00;;;15.90;62.30;;;;;;5075262;28;20021;-77
2021/06/05 05:58:17;;;;;;;16.02;3.17;;;16.10;61.80;;;;;;5057386;28;20028;-76
2021/06/05 06:00:45;;;;;;;8.65;2.83;;;16.10;61.80;;;;;;5075025;28;20032;-77
2021/06/05 06:03:13;;;;;;;6.80;2.90;;;15.90;61.60;;;;;;5057520;28;20024;-77
2021/06/05 06:05:39;;;;;;;15.10;3.97;;;15.80;61.70;;;;;;5075007;28;20024;-77
2021/06/05 06:08:07;;;;;;;13.60;2.78;;;15.70;62.70;;;;;;5074910;28;20455;-77
2021/06/05 06:10:36;;;;;;;19.42;4.47;;;15.80;62.10;;;;;;5075000;28;20055;-77
2021/06/05 06:13:04;;;;;;;11.90;2.88;;;15.70;62.30;;;;;;5057536;28;20408;-76
2021/06/05 06:15:31;;;;;;;17.05;3.47;;;15.80;62.70;;;;;;5075151;28;20096;-76
2021/06/05 06:17:59;;;;;;;7.80;3.33;;;15.80;61.50;;;;;;5074574;28;20035;-76
2021/06/05 06:20:29;;;;;;;17.70;3.95;;;15.80;61.80;;;;;;5074766;28;20031;-77
2021/06/05 06:22:56;;;;;;;17.13;4.15;;;15.70;62.00;;;;;;5057131;28;20028;-76
2021/06/05 06:25:26;;;;;;;12.40;4.75;;;15.90;62.10;;;;;;5074837;28;20448;-76
2021/06/05 06:27:53;;;;;;;13.57;3.40;;;16.00;62.00;;;;;;5056871;28;20046;-76
2021/06/05 06:30:29;;;;;;;6.53;2.53;;;16.00;61.60;;;;;;5074961;28;20091;-76
2021/06/05 06:32:56;;;;;;;13.05;3.05;;;15.80;61.60;;;;;;5057377;28;20024;-76
2021/06/05 06:35:26;;;;;;;10.73;3.40;;;15.80;61.60;;;;;;5075127;28;20436;-75
2021/06/05 06:37:52;;;;;;;8.63;2.78;;;15.70;62.70;;;;;;5074708;28;20048;-76
2021/06/05 06:40:26;;;;;;;11.68;3.67;;;15.70;62.30;;;;;;5075038;28;20032;-76
2021/06/05 06:42:52;;;;;;;6.30;2.70;;;15.60;62.40;;;;;;5074978;28;20032;-76
2021/06/05 06:45:19;;;;;;;10.10;3.28;;;15.50;62.80;;;;;;5077237;28;20025;-76
2021/06/05 06:47:46;;;;;;;12.73;4.97;;;15.70;62.90;;;;;;5076742;28;20113;-76
2021/06/05 06:50:14;;;;;;;9.80;2.97;;;15.70;62.30;;;;;;5066004;28;20032;-76
2021/06/05 06:52:42;;;;;;;16.38;3.10;;;15.70;62.90;;;;;;5039329;28;20043;-76
2021/06/05 06:55:09;;;;;;;18.25;3.55;;;15.70;63.10;;;;;;5055151;28;20032;-76
2021/06/05 06:57:35;;;;;;;9.18;4.07;;;15.50;63.20;;;;;;5054976;28;20032;-75
2021/06/05 07:00:05;;;;;;;21.48;3.97;;;15.70;63.00;;;;;;5054627;28;20021;-76
2021/06/05 07:02:31;;;;;;;15.55;5.18;;;15.60;63.30;;;;;;5073397;28;20020;-76
2021/06/05 07:04:57;;;;;;;11.00;3.13;;;15.70;63.60;;;;;;5073780;28;20024;-77
2021/06/05 07:07:24;;;;;;;8.82;3.40;;;15.60;63.80;;;;;;5074314;28;20029;-76
2021/06/05 07:09:50;;;;;;;14.68;4.00;;;15.50;63.40;;;;;;5074868;28;20126;-75
2021/06/05 07:12:17;;;;;;;12.20;2.45;;;15.50;63.80;;;;;;5078457;28;20356;-75
2021/06/05 07:14:43;;;;;;;11.52;2.88;;;15.50;63.60;;;;;;5078462;28;20020;-76
2021/06/05 07:17:10;;;;;;;18.70;4.20;;;15.50;63.40;;;;;;5056902;28;20039;-75
2021/06/05 07:19:36;;;;;;;19.17;5.32;;;15.50;63.90;;;;;;5057890;28;20036;-75
2021/06/05 07:22:03;;;;;;;6.22;2.33;;;15.50;63.60;;;;;;5058219;28;20021;-75
2021/06/05 07:24:30;;;;;;;13.00;3.28;;;15.50;64.10;;;;;;5058345;28;20338;-75
2021/06/05 07:26:57;;;;;;;14.50;3.88;;;15.30;63.60;;;;;;5057144;28;20036;-75
2021/06/05 07:29:24;;;;;;;21.45;4.50;;;15.60;64.10;;;;;;5058034;28;20017;-75
2021/06/05 07:31:53;;;;;;;9.63;2.88;;;15.60;63.70;;;;;;5058115;28;20427;-75
2021/06/05 07:34:22;;;;;;;7.07;2.45;;;15.40;64.30;;;;;;5056999;28;20407;-76
2021/06/05 07:36:52;;;;;;;13.40;3.92;;;15.40;64.30;;;;;;5057932;28;20103;-76
2021/06/05 07:39:23;;;;;;;11.05;3.00;;;15.40;64.00;;;;;;5056735;28;20039;-75
2021/06/05 07:41:50;;;;;;;11.75;2.65;;;15.40;64.00;;;;;;5056819;28;20025;-76
2021/06/05 07:44:17;;;;;;;22.08;3.65;;;15.40;64.00;;;;;;5057911;28;20448;-76
2021/06/05 07:46:48;;;;;;;11.60;3.22;;;15.50;63.90;;;;;;5070481;28;20058;-76
2021/06/05 07:49:15;;;;;;;15.10;5.88;;;15.50;63.90;;;;;;5077673;28;20060;-75
2021/06/05 07:51:42;;;;;;;17.77;3.47;;;15.50;63.40;;;;;;5077554;28;20031;-75
2021/06/05 07:54:09;;;;;;;12.88;3.08;;;15.50;63.60;;;;;;5077702;28;20016;-77
2021/06/05 07:56:37;;;;;;;9.35;3.33;;;15.50;63.60;;;;;;5059990;28;20036;-75
2021/06/05 07:59:04;;;;;;;14.57;3.95;;;15.40;63.70;;;;;;5059954;28;20036;-76
2021/06/05 08:01:30;;;;;;;13.15;3.08;;;15.60;63.70;;;;;;5077397;28;20027;-75
2021/06/05 08:03:57;;;;;;;18.48;3.13;;;15.40;63.50;;;;;;5077336;28;20029;-75
2021/06/05 08:06:23;;;;;;;6.78;2.17;;;15.60;64.10;;;;;;5077689;28;20550;-75
2021/06/05 08:08:50;;;;;;;14.38;4.03;;;15.70;63.20;;;;;;5059611;28;20479;-75
2021/06/05 08:11:17;;;;;;;11.65;2.60;;;15.60;63.10;;;;;;5077114;28;20359;-75
2021/06/05 08:13:44;;;;;;;14.75;3.30;;;15.50;63.50;;;;;;5077207;28;20012;-75
2021/06/05 08:16:11;;;;;;;23.67;4.45;;;15.40;63.60;;;;;;5077093;28;20020;-75
2021/06/05 08:18:37;;;;;;;10.43;3.65;;;15.40;63.90;;;;;;5065241;28;20047;-75
2021/06/05 08:21:08;;;;;;;17.60;3.60;;;15.50;63.70;;;;;;5056108;28;20037;-75
2021/06/05 08:23:36;;;;;;;15.55;3.55;;;15.50;63.50;;;;;;5056803;28;20025;-75
2021/06/05 08:26:06;;;;;;;19.27;4.35;;;15.40;63.90;;;;;;5039371;28;20135;-75
2021/06/05 08:28:33;;;;;;;11.93;2.65;;;15.50;64.00;;;;;;5039301;28;20025;-75
2021/06/05 08:31:04;;;;;;;9.25;4.68;;;15.50;63.70;;;;;;5056725;28;20044;-75
2021/06/05 08:33:31;;;;;;;18.27;4.72;;;15.50;63.70;;;;;;5056951;28;20021;-75
2021/06/05 08:35:58;;;;;;;13.65;4.63;;;15.50;63.60;;;;;;5039277;28;20440;-76
2021/06/05 08:38:27;;;;;;;8.20;2.88;;;15.50;63.60;;;;;;5068704;28;20051;-76
2021/06/05 08:41:25;;;;;;;18.00;2.75;;;15.40;64.40;;;;;;5076615;28;20368;-75
2021/06/05 08:44:03;;;;;;;10.95;2.38;;;15.50;64.20;;;;;;5068661;28;20063;-75
2021/06/05 08:46:39;;;;;;;10.32;3.05;;;15.30;64.20;;;;;;5076541;28;20024;-75
2021/06/05 08:49:19;;;;;;;16.52;3.60;;;15.20;64.40;;;;;;5076814;28;20024;-75
2021/06/05 08:51:53;;;;;;;11.95;2.90;;;15.40;64.70;;;;;;5058809;28;20037;-75
2021/06/05 08:54:43;;;;;;;20.08;3.72;;;15.40;64.20;;;;;;5058925;28;20079;-76
2021/06/05 08:57:48;;;;;;;21.38;4.55;;;15.50;64.00;;;;;;5076766;28;20035;-75
2021/06/05 09:00:38;;;;;;;17.27;2.97;;;15.50;63.70;;;;;;5075786;28;20431;-75
2021/06/05 09:03:15;;;;;;;12.82;3.83;;;15.30;63.70;;;;;;5076660;28;20368;-75
2021/06/05 09:06:01;;;;;;;26.30;3.78;;;15.50;63.40;;;;;;5076285;28;20043;-75
2021/06/05 09:08:30;;;;;;;15.73;3.08;;;15.40;63.70;;;;;;5076189;28;20352;-76
2021/06/05 09:11:00;;;;;;;13.63;3.50;;;15.30;63.80;;;;;;5076055;28;20030;-75
2021/06/05 09:13:27;;;;;;;14.02;3.17;;;15.40;64.20;;;;;;5055249;28;20313;-75
2021/06/05 09:16:12;;;;;;;18.55;3.50;;;15.50;64.10;;;;;;5038334;28;20507;-75
2021/06/05 09:18:53;;;;;;;16.40;4.03;;;15.50;64.00;;;;;;5073409;28;20119;-75
2021/06/05 09:21:40;;;;;;;19.50;4.43;;;15.40;64.50;;;;;;5058282;28;20036;-75
2021/06/05 09:24:25;;;;;;;26.75;5.32;;;15.30;64.40;;;;;;5076113;28;20024;-75
2021/06/05 09:27:18;;;;;;;14.88;4.53;;;15.40;64.80;;;;;;5075911;28;20028;-75
2021/06/05 09:29:57;;;;;;;20.08;4.82;;;15.40;64.30;;;;;;5072313;28;20367;-75
2021/06/05 09:32:27;;;;;;;15.38;4.07;;;15.30;64.80;;;;;;5075218;28;20024;-75
2021/06/05 09:35:14;;;;;;;13.60;3.60;;;15.10;64.90;;;;;;5075795;28;20028;-76
2021/06/05 09:37:52;;;;;;;27.25;4.65;;;15.10;65.10;;;;;;5058331;28;20069;-75
2021/06/05 09:40:29;;;;;;;28.02;5.93;;;15.00;65.30;;;;;;5075678;28;20036;-75
2021/06/05 09:43:22;;;;;;;22.60;5.35;;;15.30;65.20;;;;;;5075417;28;20415;-75
2021/06/05 09:46:08;;;;;;;11.65;3.42;;;15.00;65.20;;;;;;5057800;28;20461;-75
2021/06/05 09:48:39;;;;;;;16.42;3.83;;;15.10;65.50;;;;;;5075293;28;20032;-75
2021/06/05 09:51:31;;;;;;;10.57;3.33;;;15.10;65.10;;;;;;5057589;28;20035;-75
2021/06/05 09:54:00;;;;;;;;;;;15.10;65.00;;;;;;5075867;28;20070;-77
2021/06/05 09:56:31;;;;;;;8.40;3.95;;;15.20;65.40;;;;;;5075431;28;19915;-75
2021/06/05 09:59:07;;;;;;;14.80;4.40;;;15.10;65.10;;;;;;5075304;28;20032;-75
2021/06/05 10:01:37;;;;;;;21.58;7.07;;;15.20;64.90;;;;;;5075056;28;20017;-75
2021/06/05 10:04:16;;;;;;;13.25;3.45;;;15.10;64.90;;;;;;5057563;28;20108;-75
2021/06/05 10:06:47;;;;;;;14.20;3.53;;;15.20;64.80;;;;;;5075083;28;20467;-75
2021/06/05 10:09:24;;;;;;;19.35;4.43;;;15.20;64.80;;;;;;5075181;28;20025;-76
2021/06/05 10:11:53;;;;;;;13.68;3.60;;;15.20;64.80;;;;;;5074847;28;20395;-76
2021/06/05 10:14:32;;;;;;;16.98;4.03;;;15.20;64.40;;;;;;5057456;28;20048;-76
2021/06/05 10:17:03;;;;;;;13.85;3.85;;;15.20;64.40;;;;;;5074933;28;20023;-75
2021/06/05 10:19:41;;;;;;;24.88;3.47;;;15.20;64.40;;;;;;5038197;28;20052;-75
2021/06/05 10:22:08;;;;;;;20.90;6.53;;;15.20;64.10;;;;;;5054789;28;20025;-76
2021/06/05 10:24:41;;;;;;;9.95;4.10;;;15.20;63.80;;;;;;5054840;28;20048;-76
2021/06/05 10:27:14;;;;;;;17.38;3.47;;;15.20;64.20;;;;;;5054698;28;20025;-75
2021/06/05 10:30:15;;;;;;;13.90;2.67;;;15.10;64.40;;;;;;5054926;28;20403;-75
2021/06/05 10:32:44;;;;;;;7.97;2.78;;;15.10;64.30;;;;;;5036928;28;20061;-75
2021/06/05 10:35:28;;;;;;;19.73;4.22;;;15.00;64.40;;;;;;5055028;28;20050;-75
2021/06/05 10:38:18;;;;;;;9.52;2.90;;;15.10;64.90;;;;;;5037086;28;20039;-75
2021/06/05 10:40:47;;;;;;;17.00;3.65;;;15.20;64.40;;;;;;5054048;28;20037;-75
2021/06/05 10:43:15;;;;;;;36.35;8.02;;;15.20;64.50;;;;;;5054393;28;20104;-76
2021/06/05 10:45:45;;;;;;;16.75;2.83;;;15.20;64.20;;;;;;5053685;28;20448;-75
2021/06/05 10:48:23;;;;;;;17.45;4.30;;;15.20;63.90;;;;;;5037276;28;20440;-76
2021/06/05 10:51:19;;;;;;;7.07;2.97;;;15.10;64.30;;;;;;5037059;28;20029;-75
2021/06/05 10:53:45;;;;;;;10.95;3.17;;;15.20;64.10;;;;;;5043759;28;20037;-75
2021/06/05 10:56:19;;;;;;;13.77;3.65;;;15.20;64.40;;;;;;5054623;28;20503;-75
2021/06/05 10:58:52;;;;;;;10.43;3.00;;;15.30;64.30;;;;;;5054429;28;20448;-76
2021/06/05 11:01:40;;;;;;;16.70;4.95;;;15.20;64.20;;;;;;5036725;28;20025;-75
2021/06/05 11:04:32;;;;;;;20.85;4.15;;;15.10;64.50;;;;;;5054293;28;20029;-76
2021/06/05 11:07:05;;;;;;;16.65;3.28;;;15.20;64.40;;;;;;5036555;28;20021;-75
2021/06/05 11:09:31;;;;;;;23.30;7.53;;;15.20;64.20;;;;;;5036722;28;20104;-75
2021/06/05 11:12:26;;;;;;;18.02;4.93;;;15.10;64.30;;;;;;5036626;28;20052;-76
2021/06/05 11:14:56;;;;;;;9.68;3.78;;;15.00;64.80;;;;;;5054254;28;20433;-75
2021/06/05 11:17:30;;;;;;;14.68;2.70;;;14.90;65.30;;;;;;5055939;28;20036;-75
2021/06/05 11:20:06;;;;;;;17.10;4.65;;;15.10;64.80;;;;;;5074139;28;20024;-75
2021/06/05 11:22:51;;;;;;;9.50;3.15;;;15.10;65.00;;;;;;5073979;28;20464;-75
2021/06/05 11:25:17;;;;;;;19.75;3.92;;;15.10;64.60;;;;;;5056099;28;20090;-75
2021/06/05 11:27:45;;;;;;;37.65;8.20;;;15.10;64.80;;;;;;5056304;28;20020;-75
2021/06/05 11:30:21;;;;;;;15.02;3.55;;;15.00;64.60;;;;;;5074121;28;20027;-75
2021/06/05 11:32:56;;;;;;;13.00;3.03;;;14.90;64.90;;;;;;5073904;28;20020;-75
2021/06/05 11:35:40;;;;;;;16.77;3.42;;;15.00;64.80;;;;;;5056542;28;20118;-75
2021/06/05 11:38:27;;;;;;;17.52;3.95;;;15.00;65.00;;;;;;5074042;28;20024;-75
2021/06/05 11:40:53;;;;;;;20.02;4.95;;;15.00;64.40;;;;;;5040048;28;20119;-75
2021/06/05 11:43:44;;;;;;;11.70;2.67;;;14.90;64.90;;;;;;5073903;28;20025;-75
2021/06/05 11:46:22;;;;;;;16.23;4.45;;;14.90;64.80;;;;;;5059886;28;20037;-75
2021/06/05 11:48:54;;;;;;;19.98;5.72;;;14.90;65.20;;;;;;5073974;28;20044;-76
2021/06/05 11:51:21;;;;;;;8.18;2.90;;;15.00;64.90;;;;;;5056384;28;20075;-76
2021/06/05 11:53:54;;;;;;;23.67;3.95;;;14.90;64.80;;;;;;5073656;28;20024;-75
2021/06/05 11:56:49;;;;;;;9.82;3.35;;;15.10;65.10;;;;;;5075855;28;20020;-76
2021/06/05 11:59:39;;;;;;;11.98;3.38;;;15.10;64.90;;;;;;5069078;28;20055;-77
2021/06/05 12:02:08;;;;;;;9.82;3.85;;;15.10;64.60;;;;;;5077541;28;20028;-75
2021/06/05 12:04:57;;;;;;;7.22;3.10;;;14.90;64.80;;;;;;5077269;28;20034;-75
2021/06/05 12:07:43;;;;;;;17.23;4.75;;;15.00;64.70;;;;;;5077583;28;20032;-75
2021/06/05 12:10:12;;;;;;;12.75;3.75;;;15.00;64.80;;;;;;5077383;28;20020;-75
2021/06/05 12:12:47;;;;;;;23.70;4.13;;;14.90;64.80;;;;;;5059666;28;20108;-76
2021/06/05 12:15:24;;;;;;;17.98;4.85;;;14.90;65.00;;;;;;5077235;28;20021;-75
2021/06/05 12:18:02;;;;;;;12.65;2.72;;;14.80;65.20;;;;;;5077026;28;20093;-75
2021/06/05 12:20:38;;;;;;;22.17;5.85;;;15.00;65.10;;;;;;5077203;28;20032;-75
2021/06/05 12:23:33;;;;;;;22.65;3.80;;;14.90;64.80;;;;;;5077557;28;20409;-76
2021/06/05 12:26:10;;;;;;;16.83;3.60;;;15.00;65.10;;;;;;5075154;28;20044;-75
2021/06/05 12:28:47;;;;;;;25.13;6.80;;;15.10;64.40;;;;;;5076925;28;20078;-75
2021/06/05 12:31:28;;;;;;;16.58;4.95;;;15.00;64.80;;;;;;5077022;28;20082;-76
2021/06/05 12:34:32;;;;;;;14.95;3.17;;;15.10;64.60;;;;;;5076723;28;20034;-75
2021/06/05 12:37:24;;;;;;;17.52;2.95;;;15.00;65.00;;;;;;4999146;28;20025;-75
2021/06/05 12:39:54;;;;;;;21.02;4.03;;;14.90;64.90;;;;;;5058831;28;20070;-75
2021/06/05 12:42:26;;;;;;;10.43;3.08;;;15.00;65.30;;;;;;5059469;28;20115;-75
2021/06/05 12:44:56;;;;;;;23.50;5.30;;;15.10;64.50;;;;;;5059318;28;20031;-75
2021/06/05 12:47:30;;;;;;;13.70;4.10;;;15.10;64.60;;;;;;5076779;28;20475;-75
2021/06/05 12:49:57;;;;;;;7.82;2.92;;;14.90;65.00;;;;;;5058803;28;20037;-75
2021/06/05 12:52:28;;;;;;;15.90;4.07;;;15.00;64.70;;;;;;5076777;28;20013;-76
2021/06/05 12:55:22;;;;;;;18.23;5.00;;;15.10;64.50;;;;;;5076441;28;20191;-76
2021/06/05 12:57:55;;;;;;;15.35;4.53;;;14.90;64.70;;;;;;5076395;28;20021;-75
2021/06/05 13:00:31;;;;;;;14.15;4.35;;;14.90;64.80;;;;;;5076596;28;20027;-75
2021/06/05 13:03:08;;;;;;;16.58;2.78;;;14.90;65.30;;;;;;5076473;28;20352;-76
2021/06/05 13:05:37;;;;;;;15.13;4.28;;;15.00;64.50;;;;;;5058556;28;20056;-76